Büllingen ULM

EBBN · Liège, Wallonia, 比利时

使用的METAR站距离机场54 km。
罗盘
风向 的 Büllingen ULM 12/30
风: 2 kt, 1 beaufort

1 kt

2 kt
改变
0 ft 1.000 2.000 3.000 4.000 5.000
METAR ETNN 252020Z VRB02KT 9999 23/16 Q1012 BLU+

METAR Büllingen ULM - EBBN

Büllingen ULM是,比利时中的小机场。 该机场位于纬度50,41496和经度6,27667。 该机场有一条跑道: 12/30. 本场的ICAO机场代码为EBBN。 机场在Langen FIR中。

该航空气象观测是针对Nörvenich Air Base在2024年6月25日 22:20, 当地时间进行的。

机场观察

可变方向的风很小或没有风。

可见度为10 km 或者更多。

有。 没有观察到天花板。

温度和风寒是23 °C。 露点为16 °C,相对湿度为65%。 海平面上的气压为1012 hPa (QNH)。

白天

今天,太阳从05:24升起,在21:50降落。 这适用于Büllingen ULM,世界夏令时可能有所不同。 当地时间与世界标准时间之间的时差为+2 小时。 夏令时目前正在进行中。

公司介绍

在这个机场,你可以找到飞行俱乐部。 本场上唯一已知的公司是Feuervogel。

体会

到Vliegles.nl去找飞行课程,跳伞和其他飞行体验。 浏览页面,了解Büllingen ULM附近所有可用的活动。 你也可以使用搜索功能来寻找你所在地附近的特定飞行课程、跳伞或其他飞行体验。

跑道

Id 标题 侧风 逆风 侧风 %
12/30 121°-301° 2 kt 1 kt 86 %

逆风成分最大的方向会被突出显示,并用于横风计算。 这并不一定意味着这个方向在使用。

温度 & 天气

温度 23 °C
露点 16 °C
相对湿度 65%
Kp-index 0 (0-9)

白天

日出
05:21 (6:11)
中午
13:36
日落
21:51

小工具

你想在你的网站上有一个关于Büllingen ULM的当前航空天气(METAR)的小部件吗?

显示HTML代码
报告变更